TEZ weather

Tezpur Airport
Assam, India

Public forecast

Using degrees Celsius for public forecast. Weather courtesy of forecast.io.

Closest aviation weather report (METAR) to Tezpur Airport

Closest report is Lokpriya Gopinath Bordoloi International Airport, 73.9 nm (136.9 km) WSW. Retrieved 2020/02/22 03:00 UTC (31 minutes ago):

VEGT 220300Z 00000KT 2000 BR FEW018 SCT100 20/19 Q1021 NOSIG

Aviation forecast (TAF) for Tezpur Airport

Forecast is more than 12 hours old.

Retrieved 2020/02/21 12:30 UTC (15 hours ago):

TAF VETZ 210930Z 2112/2124 05005KT 6000 FEW100 SCT250 BECMG 2118/2120 4000 BR